Time;durP1;ratioP1;P1;durP2;ratioP2;P2;SDS_P1;SDS_P2;PMS_P1;PMS_P2;Temp;Humidity;BMP_temperature;BMP_pressure;BME280_temperature;BME280_humidity;BME280_pressure;Samples;Min_cycle;Max_cycle;Signal;HPM_P1;HPM_P2
2023/10/22 00:01:54;;;;;;;10.52;1.70;;;12.20;99.90;;;;;;5023278;28;20038;-77
2023/10/22 00:04:20;;;;;;;1.35;0.40;;;12.20;99.90;;;;;;5037976;28;20041;-79
2023/10/22 00:06:47;;;;;;;2.35;0.47;;;12.20;99.90;;;;;;5042424;28;20041;-75
2023/10/22 00:09:13;;;;;;;4.00;0.68;;;12.20;99.90;;;;;;5023171;28;20044;-78
2023/10/22 00:11:38;;;;;;;2.63;0.57;;;12.20;99.90;;;;;;5044917;28;20037;-79
2023/10/22 00:14:04;;;;;;;3.47;0.50;;;12.20;99.90;;;;;;5024321;28;20079;-78
2023/10/22 00:16:29;;;;;;;2.25;0.63;;;12.20;99.90;;;;;;5047182;28;20035;-78
2023/10/22 00:18:55;;;;;;;2.88;0.55;;;12.20;99.90;;;;;;5028971;28;20560;-76
2023/10/22 00:21:20;;;;;;;3.92;0.45;;;12.20;99.90;;;;;;5031179;28;20460;-79
2023/10/22 00:23:46;;;;;;;3.08;0.45;;;12.20;99.90;;;;;;5024985;28;20041;-77
2023/10/22 00:26:13;;;;;;;3.00;0.55;;;12.30;99.90;;;;;;5028797;28;20099;-77
2023/10/22 00:28:39;;;;;;;0.98;0.28;;;12.20;99.90;;;;;;5049467;28;20029;-79
2023/10/22 00:31:04;;;;;;;10.23;1.50;;;12.20;99.90;;;;;;5046628;28;20030;-75
2023/10/22 00:33:30;;;;;;;3.67;0.47;;;12.20;99.90;;;;;;5029507;28;20551;-78
2023/10/22 00:35:56;;;;;;;4.00;0.55;;;12.20;99.90;;;;;;5024157;28;20045;-79
2023/10/22 00:38:22;;;;;;;1.02;0.28;;;12.20;99.90;;;;;;5040092;28;20034;-76
2023/10/22 00:40:48;;;;;;;1.23;0.20;;;12.20;99.90;;;;;;5050354;28;20033;-79
2023/10/22 00:43:13;;;;;;;4.05;0.50;;;12.20;99.90;;;;;;5025617;28;20088;-80
2023/10/22 00:45:39;;;;;;;7.47;1.42;;;12.20;99.90;;;;;;5027144;28;20372;-77
2023/10/22 00:48:07;;;;;;;4.13;0.98;;;12.20;99.90;;;;;;5025888;28;20126;-76
2023/10/22 00:50:34;;;;;;;4.57;0.50;;;12.20;99.90;;;;;;5043369;28;20026;-81
2023/10/22 00:52:59;;;;;;;4.30;1.00;;;12.30;99.90;;;;;;5042883;28;20083;-77
2023/10/22 00:55:26;;;;;;;3.80;0.70;;;12.30;99.90;;;;;;5023276;28;20037;-79
2023/10/22 00:57:52;;;;;;;5.38;0.50;;;12.30;99.90;;;;;;5038074;28;20041;-78
2023/10/22 01:00:19;;;;;;;6.55;1.10;;;12.30;99.90;;;;;;5026026;28;20033;-76
2023/10/22 01:02:45;;;;;;;5.55;0.82;;;12.30;99.90;;;;;;5047690;28;20033;-78
2023/10/22 01:05:10;;;;;;;5.75;0.63;;;12.30;99.90;;;;;;5026900;28;20045;-78
2023/10/22 01:07:36;;;;;;;3.00;0.80;;;12.30;99.90;;;;;;5026943;28;20163;-78
2023/10/22 01:10:03;;;;;;;3.35;0.40;;;12.30;99.90;;;;;;5047339;28;20041;-78
2023/10/22 01:12:37;;;;;;;1.83;0.65;;;12.30;99.90;;;;;;5046079;28;20048;-77
2023/10/22 01:15:04;;;;;;;5.90;0.80;;;12.30;99.90;;;;;;5023890;28;20532;-77
2023/10/22 01:17:30;;;;;;;2.85;0.60;;;12.30;99.90;;;;;;5044217;28;20033;-77
2023/10/22 01:19:55;;;;;;;1.98;0.47;;;12.30;99.90;;;;;;5021865;28;20102;-78
2023/10/22 01:22:21;;;;;;;1.77;0.50;;;12.30;99.90;;;;;;5022826;28;20037;-78
2023/10/22 01:24:47;;;;;;;2.00;0.40;;;12.30;99.90;;;;;;5027598;28;20040;-76
2023/10/22 01:27:12;;;;;;;2.92;0.60;;;12.20;99.90;;;;;;5025591;28;20042;-77
2023/10/22 01:29:38;;;;;;;2.35;0.40;;;12.30;99.90;;;;;;5031325;28;20022;-76
2023/10/22 01:32:04;;;;;;;1.90;0.88;;;12.30;99.90;;;;;;5030871;28;20091;-76
2023/10/22 01:34:30;;;;;;;4.03;0.50;;;12.30;99.90;;;;;;5034382;28;20026;-75
2023/10/22 01:36:55;;;;;;;2.22;0.43;;;12.30;99.90;;;;;;5013759;28;20086;-76
2023/10/22 01:39:22;;;;;;;3.65;0.55;;;12.30;99.90;;;;;;5033977;28;20049;-74
2023/10/22 01:41:49;;;;;;;0.80;0.40;;;12.30;99.90;;;;;;5031246;28;20502;-77
2023/10/22 01:44:15;;;;;;;0.60;0.30;;;12.30;99.90;;;;;;5033453;28;20495;-74
2023/10/22 01:46:40;;;;;;;3.40;0.55;;;12.30;99.90;;;;;;5035546;28;20029;-75
2023/10/22 01:49:06;;;;;;;1.33;0.38;;;12.30;99.90;;;;;;5031828;28;20025;-76
2023/10/22 01:51:32;;;;;;;1.20;0.52;;;12.30;99.90;;;;;;5030692;28;20052;-75
2023/10/22 01:53:57;;;;;;;0.98;0.50;;;12.30;99.90;;;;;;5034920;28;20029;-74
2023/10/22 01:56:23;;;;;;;1.92;0.30;;;12.30;99.90;;;;;;5011905;28;20045;-74
2023/10/22 01:58:49;;;;;;;0.90;0.28;;;12.30;99.90;;;;;;5042989;28;20075;-74
2023/10/22 02:01:14;;;;;;;0.90;0.10;;;12.30;99.90;;;;;;5012294;28;20045;-75
2023/10/22 02:03:45;;;;;;;0.95;0.32;;;12.30;99.90;;;;;;5011872;28;20093;-77
2023/10/22 02:06:14;;;;;;;2.08;0.40;;;12.30;99.90;;;;;;5012619;28;20044;-77
2023/10/22 02:08:40;;;;;;;0.80;0.40;;;12.30;99.90;;;;;;5012046;28;20107;-76
2023/10/22 02:11:06;;;;;;;0.60;0.30;;;12.30;99.90;;;;;;5013503;28;20036;-74
2023/10/22 02:13:32;;;;;;;0.30;0.20;;;12.30;99.90;;;;;;5011511;28;20038;-77
2023/10/22 02:15:58;;;;;;;1.48;0.20;;;12.30;99.90;;;;;;5030498;28;20025;-74
2023/10/22 02:18:23;;;;;;;2.85;0.30;;;12.30;99.90;;;;;;5012301;28;20025;-74
2023/10/22 02:20:59;;;;;;;0.38;0.20;;;12.40;99.90;;;;;;5030846;28;20120;-78
2023/10/22 02:23:25;;;;;;;0.22;0.10;;;12.40;99.90;;;;;;5029959;28;20029;-74
2023/10/22 02:25:51;;;;;;;0.82;0.30;;;12.40;99.90;;;;;;5030834;28;20030;-74
2023/10/22 02:28:17;;;;;;;1.15;0.30;;;12.40;99.90;;;;;;5020215;28;20052;-76
2023/10/22 02:30:43;;;;;;;1.33;0.30;;;12.40;99.90;;;;;;5022072;28;20422;-75
2023/10/22 02:33:09;;;;;;;0.75;0.20;;;12.40;99.90;;;;;;5012887;28;20175;-76
2023/10/22 02:35:40;;;;;;;2.20;0.40;;;12.50;99.90;;;;;;5029490;28;20077;-76
2023/10/22 02:38:08;;;;;;;1.88;0.30;;;12.50;99.90;;;;;;5012239;28;20068;-75
2023/10/22 02:40:36;;;;;;;1.13;0.30;;;12.50;99.90;;;;;;5032460;28;20040;-74
2023/10/22 02:43:03;;;;;;;2.67;0.30;;;12.60;99.90;;;;;;5029806;28;20029;-74
2023/10/22 02:45:29;;;;;;;1.80;0.50;;;12.50;99.90;;;;;;5012741;28;20038;-76
2023/10/22 02:47:55;;;;;;;0.80;0.30;;;12.60;99.90;;;;;;5029364;28;20029;-77
2023/10/22 02:50:21;;;;;;;1.98;0.65;;;12.60;99.90;;;;;;5021040;28;20032;-75
2023/10/22 02:52:47;;;;;;;3.70;0.40;;;12.60;99.90;;;;;;5010798;28;20120;-75
2023/10/22 02:55:12;;;;;;;2.65;0.32;;;12.70;99.90;;;;;;5028706;28;20045;-76
2023/10/22 02:57:38;;;;;;;2.92;0.52;;;12.60;99.90;;;;;;5028422;28;20508;-75
2023/10/22 03:00:05;;;;;;;2.15;0.20;;;12.60;99.90;;;;;;5011335;28;20029;-74
2023/10/22 03:02:30;;;;;;;1.42;0.30;;;12.60;99.90;;;;;;5027559;28;20029;-76
2023/10/22 03:04:56;;;;;;;0.17;0.13;;;12.60;99.90;;;;;;5016684;28;20039;-75
2023/10/22 03:07:24;;;;;;;3.67;0.93;;;12.60;99.90;;;;;;5028062;28;20033;-74
2023/10/22 03:09:49;;;;;;;4.80;0.43;;;12.60;99.90;;;;;;5033299;28;20060;-76
2023/10/22 03:12:15;;;;;;;2.70;0.63;;;12.60;99.90;;;;;;5010082;28;20762;-74
2023/10/22 03:14:40;;;;;;;6.38;1.38;;;12.60;99.90;;;;;;5027700;28;20677;-75
2023/10/22 03:17:06;;;;;;;3.22;0.95;;;12.50;99.90;;;;;;5029105;28;20445;-77
2023/10/22 03:19:32;;;;;;;5.18;1.23;;;12.50;99.90;;;;;;5028482;28;20033;-77
2023/10/22 03:21:57;;;;;;;5.78;1.60;;;12.60;99.90;;;;;;5029518;28;20032;-75
2023/10/22 03:24:23;;;;;;;5.55;1.30;;;12.50;99.90;;;;;;5010829;28;20398;-77
2023/10/22 03:26:49;;;;;;;4.80;1.00;;;12.50;99.90;;;;;;5030742;28;20394;-77
2023/10/22 03:29:14;;;;;;;4.32;1.20;;;12.40;99.90;;;;;;5030301;28;20132;-76
2023/10/22 03:31:40;;;;;;;4.95;1.65;;;12.30;99.90;;;;;;5028963;28;20044;-77
2023/10/22 03:34:05;;;;;;;6.00;1.70;;;12.30;99.90;;;;;;5011517;28;20041;-76
2023/10/22 03:36:31;;;;;;;4.72;1.63;;;12.20;99.90;;;;;;5010185;28;20129;-79
2023/10/22 03:38:57;;;;;;;6.65;1.60;;;12.10;99.90;;;;;;5011587;28;20027;-75
2023/10/22 03:41:22;;;;;;;7.93;1.50;;;12.10;99.90;;;;;;5028596;28;20037;-77
2023/10/22 03:43:49;;;;;;;6.45;1.90;;;12.00;99.90;;;;;;5030078;28;20033;-77
2023/10/22 03:46:14;;;;;;;6.20;2.08;;;12.00;99.90;;;;;;5030250;28;20025;-78
2023/10/22 03:48:40;;;;;;;5.78;2.30;;;11.90;99.90;;;;;;5029105;28;20482;-76
2023/10/22 03:51:05;;;;;;;5.05;2.40;;;11.90;99.90;;;;;;5012369;28;20445;-76
2023/10/22 03:53:31;;;;;;;6.93;2.10;;;11.90;99.90;;;;;;5017105;28;20037;-75
2023/10/22 03:55:57;;;;;;;4.90;1.77;;;11.90;99.90;;;;;;5016543;28;20014;-76
2023/10/22 03:58:25;;;;;;;4.00;1.52;;;11.90;99.90;;;;;;5032266;28;20026;-75
2023/10/22 04:00:52;;;;;;;6.35;1.38;;;11.80;99.90;;;;;;5018091;28;20541;-77
2023/10/22 04:03:18;;;;;;;3.08;1.15;;;11.80;99.90;;;;;;5032278;28;20486;-75
2023/10/22 04:05:43;;;;;;;2.78;1.17;;;11.80;99.90;;;;;;5015247;28;20038;-78
2023/10/22 04:08:09;;;;;;;3.33;1.20;;;11.70;99.90;;;;;;5039380;28;20033;-75
2023/10/22 04:10:35;;;;;;;4.72;0.95;;;11.70;99.90;;;;;;5032886;28;20036;-75
2023/10/22 04:13:02;;;;;;;1.77;0.90;;;11.70;99.90;;;;;;5035826;28;20506;-77
2023/10/22 04:15:28;;;;;;;1.50;1.02;;;11.70;99.90;;;;;;5031687;28;20033;-78
2023/10/22 04:17:53;;;;;;;2.72;0.60;;;11.70;99.90;;;;;;5033181;28;20558;-76
2023/10/22 04:20:20;;;;;;;2.95;0.88;;;11.70;99.90;;;;;;5033881;28;20121;-76
2023/10/22 04:22:45;;;;;;;2.35;0.65;;;11.70;99.90;;;;;;5014476;28;20033;-75
2023/10/22 04:25:13;;;;;;;2.97;1.00;;;11.60;99.90;;;;;;5035316;28;20506;-75
2023/10/22 04:27:39;;;;;;;5.80;1.08;;;11.60;99.90;;;;;;5025116;28;20041;-78
2023/10/22 04:30:05;;;;;;;5.50;1.45;;;11.60;99.90;;;;;;5015078;28;20034;-76
2023/10/22 04:32:34;;;;;;;4.30;0.90;;;11.70;99.90;;;;;;5013470;28;20114;-75
2023/10/22 04:34:59;;;;;;;4.78;0.98;;;11.60;99.90;;;;;;5014749;28;20029;-77
2023/10/22 04:37:27;;;;;;;4.25;0.93;;;11.60;99.90;;;;;;5031180;28;20560;-76
2023/10/22 04:39:53;;;;;;;6.43;1.23;;;11.60;99.90;;;;;;5035028;28;20037;-74
2023/10/22 04:42:19;;;;;;;2.47;0.82;;;11.60;99.90;;;;;;5031727;28;20487;-75
2023/10/22 04:44:45;;;;;;;4.53;0.88;;;11.60;99.90;;;;;;5031360;28;20506;-77
2023/10/22 04:47:11;;;;;;;2.05;0.60;;;11.60;99.90;;;;;;5021449;28;20296;-75
2023/10/22 04:49:37;;;;;;;8.18;1.65;;;11.60;99.90;;;;;;5006530;28;20029;-77
2023/10/22 04:52:03;;;;;;;8.63;1.17;;;11.70;99.90;;;;;;5032419;28;20033;-77
2023/10/22 04:54:29;;;;;;;2.97;1.00;;;11.60;99.90;;;;;;5031704;28;20045;-76
2023/10/22 04:56:54;;;;;;;7.03;0.88;;;11.60;99.90;;;;;;5032268;28;20030;-76
2023/10/22 04:59:20;;;;;;;2.65;0.90;;;11.70;99.90;;;;;;5035364;28;20033;-77
2023/10/22 05:01:45;;;;;;;4.35;1.20;;;11.70;99.90;;;;;;5037087;28;20032;-77
2023/10/22 05:04:11;;;;;;;6.47;1.55;;;11.60;99.90;;;;;;5016217;28;20041;-75
2023/10/22 05:06:36;;;;;;;3.85;0.70;;;11.60;99.90;;;;;;5034904;28;20044;-78
2023/10/22 05:09:02;;;;;;;4.60;0.80;;;11.60;99.90;;;;;;5018489;28;20030;-77
2023/10/22 05:11:28;;;;;;;4.18;1.20;;;11.70;99.90;;;;;;5034184;28;20056;-75
2023/10/22 05:13:54;;;;;;;3.65;1.02;;;11.60;99.90;;;;;;5037331;28;20529;-76
2023/10/22 05:16:19;;;;;;;4.95;1.05;;;11.60;99.90;;;;;;5015344;28;20045;-75
2023/10/22 05:18:45;;;;;;;4.47;0.90;;;11.60;99.90;;;;;;5024794;28;20041;-75
2023/10/22 05:21:10;;;;;;;6.45;1.60;;;11.60;99.90;;;;;;5023723;28;20123;-76
2023/10/22 05:23:36;;;;;;;3.33;1.17;;;11.60;99.90;;;;;;5016453;28;20049;-76
2023/10/22 05:26:12;;;;;;;4.53;1.20;;;11.60;99.90;;;;;;5040247;28;20179;-75
2023/10/22 05:28:39;;;;;;;6.32;1.30;;;11.60;99.90;;;;;;5013562;28;21133;-75
2023/10/22 05:31:15;;;;;;;8.23;1.73;;;11.60;99.90;;;;;;5035411;28;20102;-75
2023/10/22 05:33:42;;;;;;;1.67;0.70;;;11.60;99.90;;;;;;5038223;28;20570;-75
2023/10/22 05:36:19;;;;;;;6.82;1.10;;;11.60;99.90;;;;;;5036156;28;20031;-76
2023/10/22 05:38:45;;;;;;;5.10;1.30;;;11.60;99.90;;;;;;5006343;28;20030;-76
2023/10/22 05:41:23;;;;;;;1.13;0.73;;;11.60;99.90;;;;;;5039717;28;20058;-77
2023/10/22 05:43:56;;;;;;;2.45;0.98;;;11.50;99.90;;;;;;5031020;28;20060;-77
2023/10/22 05:46:26;;;;;;;5.22;1.40;;;11.50;99.90;;;;;;5038431;28;20057;-76
2023/10/22 05:48:52;;;;;;;2.22;0.77;;;11.50;99.90;;;;;;5013665;28;20053;-76
2023/10/22 05:51:17;;;;;;;6.90;1.08;;;11.50;99.90;;;;;;5012741;28;20034;-76
2023/10/22 05:53:44;;;;;;;7.70;1.25;;;11.50;99.90;;;;;;5013287;28;20034;-77
2023/10/22 05:56:10;;;;;;;4.13;1.25;;;11.50;99.90;;;;;;5013852;28;20056;-75
2023/10/22 05:58:37;;;;;;;2.47;0.70;;;11.50;99.90;;;;;;5030571;28;20037;-75
2023/10/22 06:01:02;;;;;;;4.90;0.98;;;11.50;99.90;;;;;;5031700;28;20099;-76
2023/10/22 06:03:28;;;;;;;4.63;1.20;;;11.50;99.90;;;;;;5030160;28;20462;-75
2023/10/22 06:05:54;;;;;;;2.90;1.25;;;11.50;99.90;;;;;;5013099;28;20121;-75
2023/10/22 06:08:20;;;;;;;4.03;0.93;;;11.50;99.90;;;;;;5012731;28;20396;-77
2023/10/22 06:10:48;;;;;;;5.57;1.15;;;11.50;99.90;;;;;;5030710;28;20025;-75
2023/10/22 06:13:14;;;;;;;6.28;1.30;;;11.40;99.90;;;;;;5012920;28;20118;-76
2023/10/22 06:15:42;;;;;;;2.60;1.00;;;11.40;99.90;;;;;;5012495;28;20227;-75
2023/10/22 06:18:07;;;;;;;2.42;0.93;;;11.50;99.90;;;;;;5033591;28;20029;-76
2023/10/22 06:20:34;;;;;;;3.05;1.02;;;11.40;99.90;;;;;;5029465;28;20497;-76
2023/10/22 06:23:01;;;;;;;1.85;0.88;;;11.40;99.90;;;;;;5034795;28;20029;-77
2023/10/22 06:25:27;;;;;;;4.57;1.38;;;11.50;99.90;;;;;;5017160;28;20136;-74
2023/10/22 06:27:55;;;;;;;2.72;1.05;;;11.40;99.90;;;;;;5012524;28;20121;-75
2023/10/22 06:30:25;;;;;;;7.38;1.23;;;11.50;99.90;;;;;;5030651;28;20125;-76
2023/10/22 06:32:58;;;;;;;3.65;1.75;;;11.50;99.90;;;;;;5012076;28;20056;-75
2023/10/22 06:35:28;;;;;;;2.03;1.30;;;11.50;99.90;;;;;;5011396;28;20112;-75
2023/10/22 06:37:53;;;;;;;3.83;1.70;;;11.40;99.90;;;;;;5031256;28;20040;-75
2023/10/22 06:40:20;;;;;;;5.18;1.55;;;11.50;99.90;;;;;;5030029;28;20021;-75
2023/10/22 06:42:48;;;;;;;7.18;2.33;;;11.40;99.90;;;;;;5012113;28;20037;-75
2023/10/22 06:45:14;;;;;;;4.53;1.85;;;11.50;99.90;;;;;;5020496;28;20037;-76
2023/10/22 06:47:40;;;;;;;7.10;1.88;;;11.50;99.90;;;;;;5017702;28;20029;-76
2023/10/22 06:50:08;;;;;;;5.47;2.15;;;11.50;99.90;;;;;;5040040;28;20101;-74
2023/10/22 06:52:34;;;;;;;4.20;1.90;;;11.50;99.90;;;;;;5028723;28;20041;-75
2023/10/22 06:55:00;;;;;;;3.90;2.00;;;11.50;99.90;;;;;;5030127;28;20478;-75
2023/10/22 06:57:26;;;;;;;8.57;2.10;;;11.50;99.90;;;;;;5029317;28;20164;-74
2023/10/22 06:59:54;;;;;;;7.60;2.22;;;11.50;99.90;;;;;;5030139;28;20112;-75
2023/10/22 07:02:19;;;;;;;7.25;2.30;;;11.50;99.90;;;;;;5017065;28;20521;-77
2023/10/22 07:04:47;;;;;;;8.32;1.65;;;11.50;99.90;;;;;;5012010;28;20041;-78
2023/10/22 07:07:13;;;;;;;5.35;1.60;;;11.50;99.90;;;;;;5008711;28;20502;-77
2023/10/22 07:09:38;;;;;;;7.97;2.15;;;11.50;99.90;;;;;;5029125;28;20113;-75
2023/10/22 07:12:05;;;;;;;6.10;1.90;;;11.40;99.90;;;;;;4996460;28;20040;-77
2023/10/22 07:14:30;;;;;;;4.57;1.70;;;11.40;99.90;;;;;;5029409;28;20071;-78
2023/10/22 07:16:56;;;;;;;10.80;2.38;;;11.40;99.90;;;;;;5013399;28;20033;-78
2023/10/22 07:19:22;;;;;;;10.50;2.67;;;11.40;99.90;;;;;;5029176;28;20129;-77
2023/10/22 07:21:48;;;;;;;7.03;2.65;;;11.30;99.90;;;;;;5018103;28;20045;-78
2023/10/22 07:24:13;;;;;;;7.25;2.63;;;11.40;99.90;;;;;;5011918;28;20048;-75
2023/10/22 07:26:39;;;;;;;7.10;2.17;;;11.30;99.90;;;;;;5033844;28;20041;-75
2023/10/22 07:29:04;;;;;;;6.07;1.70;;;11.30;99.90;;;;;;5024485;28;20075;-77
2023/10/22 07:31:30;;;;;;;5.45;1.90;;;11.30;99.90;;;;;;5042032;28;20036;-77
2023/10/22 07:33:55;;;;;;;13.48;2.65;;;11.30;99.90;;;;;;5045468;28;20037;-77
2023/10/22 07:36:21;;;;;;;7.28;1.92;;;11.30;99.90;;;;;;5045256;28;20033;-76
2023/10/22 07:38:51;;;;;;;9.00;1.85;;;11.40;99.90;;;;;;5037463;28;20034;-77
2023/10/22 07:41:17;;;;;;;7.33;1.40;;;11.40;99.90;;;;;;5036083;28;20036;-77
2023/10/22 07:43:43;;;;;;;2.95;1.52;;;11.40;99.90;;;;;;5024039;28;20049;-79
2023/10/22 07:46:10;;;;;;;2.83;1.30;;;11.40;99.90;;;;;;5043060;28;20337;-77
2023/10/22 07:48:37;;;;;;;4.80;1.00;;;11.40;99.90;;;;;;5035583;28;20052;-77
2023/10/22 07:51:13;;;;;;;4.97;1.20;;;11.40;99.90;;;;;;5023922;28;20044;-79
2023/10/22 07:53:39;;;;;;;4.03;1.45;;;11.40;99.90;;;;;;5019034;28;20033;-78
2023/10/22 07:56:06;;;;;;;3.58;1.42;;;11.30;99.90;;;;;;5023199;28;20037;-76
2023/10/22 07:58:32;;;;;;;3.33;1.17;;;11.30;99.90;;;;;;5040835;28;20196;-78
2023/10/22 08:00:58;;;;;;;5.97;1.60;;;11.40;99.90;;;;;;5044093;28;20025;-76
2023/10/22 08:03:23;;;;;;;5.93;1.75;;;11.40;99.90;;;;;;5026255;28;20040;-77
2023/10/22 08:05:49;;;;;;;5.18;1.73;;;11.50;99.90;;;;;;5018209;28;20029;-77
2023/10/22 08:08:14;;;;;;;7.20;2.20;;;11.50;99.90;;;;;;5026625;28;20025;-77
2023/10/22 08:10:40;;;;;;;5.60;2.17;;;11.60;99.90;;;;;;5023101;28;20033;-77
2023/10/22 08:13:06;;;;;;;8.95;2.08;;;11.70;99.90;;;;;;5044926;28;20029;-77
2023/10/22 08:15:34;;;;;;;8.65;1.60;;;11.80;99.90;;;;;;5037103;28;20053;-77
2023/10/22 08:17:59;;;;;;;2.55;1.20;;;11.90;99.90;;;;;;5036194;28;20112;-76
2023/10/22 08:20:25;;;;;;;5.25;1.30;;;12.00;99.90;;;;;;5019568;28;20466;-76
2023/10/22 08:22:50;;;;;;;5.82;1.58;;;12.10;99.90;;;;;;5020568;28;20079;-78
2023/10/22 08:25:16;;;;;;;3.78;1.60;;;12.10;99.90;;;;;;5039431;28;20070;-77
2023/10/22 08:27:41;;;;;;;4.93;1.30;;;12.10;99.90;;;;;;5037010;28;20043;-76
2023/10/22 08:30:07;;;;;;;5.55;2.17;;;12.10;99.90;;;;;;5022642;28;20046;-77
2023/10/22 08:32:34;;;;;;;3.88;1.63;;;12.10;99.90;;;;;;5037649;28;20394;-77
2023/10/22 08:34:59;;;;;;;2.08;1.10;;;12.10;99.90;;;;;;5042072;28;20033;-78
2023/10/22 08:37:25;;;;;;;9.95;1.75;;;12.00;99.90;;;;;;5041544;28;20529;-77
2023/10/22 08:39:51;;;;;;;1.98;1.23;;;12.00;99.90;;;;;;5016278;28;20029;-77
2023/10/22 08:42:22;;;;;;;3.53;1.20;;;11.90;99.90;;;;;;5042716;28;20159;-77
2023/10/22 08:44:49;;;;;;;3.10;1.00;;;11.90;99.90;;;;;;5039136;28;20034;-76
2023/10/22 08:47:16;;;;;;;3.35;1.23;;;11.90;99.90;;;;;;5017538;28;20129;-75
2023/10/22 08:49:41;;;;;;;3.35;1.50;;;11.90;99.90;;;;;;5035714;28;20033;-76
2023/10/22 08:52:08;;;;;;;6.15;1.60;;;11.90;99.90;;;;;;5019976;28;20036;-77
2023/10/22 08:54:36;;;;;;;5.72;1.17;;;11.90;99.90;;;;;;5015846;28;20161;-78
2023/10/22 08:57:02;;;;;;;3.67;1.63;;;12.00;99.90;;;;;;5019785;28;20029;-77
2023/10/22 08:59:29;;;;;;;5.35;1.52;;;12.20;99.90;;;;;;5031363;28;20037;-77
2023/10/22 09:01:56;;;;;;;2.65;1.10;;;12.40;99.90;;;;;;5028330;28;20447;-77
2023/10/22 09:04:22;;;;;;;4.60;1.75;;;12.60;99.90;;;;;;5033234;28;20063;-77
2023/10/22 09:06:52;;;;;;;4.78;1.92;;;12.80;99.90;;;;;;5021828;28;20045;-77
2023/10/22 09:09:33;;;;;;;3.67;1.25;;;12.90;99.90;;;;;;5038506;28;20060;-79
2023/10/22 09:11:59;;;;;;;2.72;1.13;;;12.90;99.90;;;;;;5031044;28;20120;-77
2023/10/22 09:14:25;;;;;;;3.90;1.40;;;12.90;99.90;;;;;;5018359;28;20033;-76
2023/10/22 09:16:51;;;;;;;2.97;0.98;;;12.80;99.90;;;;;;5037463;28;20037;-77
2023/10/22 09:19:37;;;;;;;3.20;0.90;;;12.80;99.90;;;;;;5039180;28;20487;-80
2023/10/22 09:22:07;;;;;;;5.63;1.27;;;12.70;99.90;;;;;;5017802;28;20124;-76
2023/10/22 09:24:37;;;;;;;2.75;1.00;;;12.70;99.90;;;;;;5030963;28;20044;-77
2023/10/22 09:27:02;;;;;;;4.65;1.17;;;12.70;99.90;;;;;;5033505;28;20048;-78
2023/10/22 09:29:28;;;;;;;2.35;0.73;;;12.60;99.90;;;;;;5022341;28;20407;-76
2023/10/22 09:31:55;;;;;;;9.77;1.40;;;12.60;99.90;;;;;;5033400;28;20078;-77
2023/10/22 09:34:32;;;;;;;3.42;1.13;;;12.70;99.90;;;;;;5015112;28;20091;-77
2023/10/22 09:36:59;;;;;;;5.22;0.88;;;12.70;99.90;;;;;;5016088;28;20042;-78
2023/10/22 09:39:38;;;;;;;4.07;1.42;;;12.90;99.90;;;;;;5029682;28;20185;-78
2023/10/22 09:42:05;;;;;;;4.43;0.70;;;12.90;99.90;;;;;;5014443;28;20509;-79
2023/10/22 09:44:35;;;;;;;3.10;0.60;;;13.00;99.90;;;;;;5015728;28;20383;-78
2023/10/22 09:47:02;;;;;;;3.30;0.68;;;13.10;99.90;;;;;;5012461;28;20547;-77
2023/10/22 09:49:30;;;;;;;4.63;1.17;;;13.10;99.90;;;;;;5027906;28;20383;-77
2023/10/22 09:51:59;;;;;;;2.58;0.80;;;13.20;99.90;;;;;;5011538;28;20026;-77
2023/10/22 09:54:37;;;;;;;3.22;0.73;;;13.20;99.90;;;;;;5014519;28;20548;-77
2023/10/22 09:57:13;;;;;;;4.03;1.08;;;13.30;99.90;;;;;;5009585;28;20037;-77
2023/10/22 09:59:40;;;;;;;1.75;0.55;;;13.40;99.90;;;;;;5032941;28;20068;-78
2023/10/22 10:02:09;;;;;;;7.32;0.50;;;13.50;99.90;;;;;;5012412;28;20036;-77
2023/10/22 10:04:35;;;;;;;1.27;0.43;;;13.50;99.90;;;;;;5029075;28;20049;-76
2023/10/22 10:07:03;;;;;;;9.35;0.65;;;13.70;99.90;;;;;;5031666;28;20034;-79
2023/10/22 10:09:30;;;;;;;1.45;0.40;;;13.80;99.90;;;;;;5010005;28;20068;-76
2023/10/22 10:11:58;;;;;;;4.35;0.35;;;14.00;99.90;;;;;;5012051;28;20068;-77
2023/10/22 10:14:36;;;;;;;2.45;0.30;;;14.00;99.90;;;;;;5016459;28;20542;-78
2023/10/22 10:17:03;;;;;;;1.88;0.40;;;13.90;99.90;;;;;;5010853;28;20053;-76
2023/10/22 10:19:29;;;;;;;3.10;0.65;;;13.90;99.90;;;;;;5032386;28;20063;-77
2023/10/22 10:21:55;;;;;;;2.53;0.70;;;14.00;99.90;;;;;;5017208;28;20045;-77
2023/10/22 10:24:23;;;;;;;1.85;0.60;;;14.10;99.90;;;;;;5012951;28;20045;-78
2023/10/22 10:27:11;;;;;;;4.03;0.50;;;14.10;99.90;;;;;;5010068;28;20088;-77
2023/10/22 10:29:37;;;;;;;4.13;0.68;;;14.10;99.90;;;;;;5021615;28;20038;-77
2023/10/22 10:32:15;;;;;;;5.03;1.35;;;14.10;99.90;;;;;;5010621;28;20064;-78
2023/10/22 10:34:46;;;;;;;2.55;0.55;;;14.00;99.90;;;;;;5035115;28;20449;-76
2023/10/22 10:37:15;;;;;;;2.15;0.43;;;14.00;99.90;;;;;;5033446;28;20045;-77
2023/10/22 10:39:45;;;;;;;2.70;0.40;;;14.00;99.90;;;;;;5011218;28;20395;-78
2023/10/22 10:42:12;;;;;;;3.97;0.98;;;14.00;99.90;;;;;;5012017;28;20048;-78
2023/10/22 10:45:03;;;;;;;1.23;0.32;;;14.10;99.90;;;;;;5029054;28;20040;-78
2023/10/22 10:47:35;;;;;;;0.98;0.47;;;14.20;99.90;;;;;;5026700;28;20461;-77
2023/10/22 10:50:06;;;;;;;1.08;0.52;;;14.20;99.90;;;;;;5003647;28;20040;-79
2023/10/22 10:52:38;;;;;;;5.68;0.68;;;14.20;99.90;;;;;;5014374;28;20077;-78
2023/10/22 10:55:10;;;;;;;2.97;0.50;;;14.20;99.90;;;;;;5012715;28;20056;-77
2023/10/22 10:57:37;;;;;;;4.82;0.73;;;14.20;99.90;;;;;;5020007;28;20127;-78
2023/10/22 11:00:09;;;;;;;4.20;0.65;;;14.20;99.90;;;;;;5030585;28;20030;-80
2023/10/22 11:02:48;;;;;;;3.25;0.70;;;14.30;99.90;;;;;;5022573;28;22632;-80
2023/10/22 11:05:15;;;;;;;2.40;0.75;;;14.40;99.90;;;;;;5021471;28;20491;-76
2023/10/22 11:07:43;;;;;;;1.52;0.20;;;14.40;99.90;;;;;;5018857;28;20121;-78
2023/10/22 11:10:16;;;;;;;5.60;0.60;;;14.40;99.90;;;;;;5013567;28;20036;-78
2023/10/22 11:12:44;;;;;;;1.27;0.20;;;14.30;99.90;;;;;;5010609;28;20084;-76
2023/10/22 11:15:12;;;;;;;2.53;0.32;;;14.20;99.90;;;;;;5006490;28;20033;-76
2023/10/22 11:17:41;;;;;;;4.28;0.30;;;14.10;99.90;;;;;;5029776;28;20047;-77
2023/10/22 11:20:10;;;;;;;3.85;0.63;;;14.00;99.90;;;;;;5026795;28;20133;-77
2023/10/22 11:22:36;;;;;;;3.80;0.20;;;13.90;99.90;;;;;;5027862;28;20537;-78
2023/10/22 11:25:05;;;;;;;0.98;0.20;;;13.90;99.90;;;;;;5014200;28;20575;-77
2023/10/22 11:27:32;;;;;;;0.40;0.10;;;14.00;99.90;;;;;;5008648;28;20483;-79
2023/10/22 11:30:00;;;;;;;1.27;0.10;;;14.00;99.90;;;;;;5028286;28;20538;-77
2023/10/22 11:32:26;;;;;;;1.30;0.30;;;14.00;99.90;;;;;;5015667;28;20044;-77
2023/10/22 11:34:59;;;;;;;0.63;0.10;;;14.10;99.90;;;;;;5012377;28;20803;-77
2023/10/22 11:37:29;;;;;;;2.67;0.30;;;14.30;99.90;;;;;;5012990;28;20029;-78
2023/10/22 11:39:55;;;;;;;0.52;0.35;;;14.40;99.90;;;;;;5020969;28;20095;-78
2023/10/22 11:42:20;;;;;;;2.05;0.20;;;14.60;99.90;;;;;;5018868;28;20029;-78
2023/10/22 11:44:46;;;;;;;1.98;0.20;;;14.70;99.90;;;;;;5032260;28;20041;-78
2023/10/22 11:47:25;;;;;;;1.55;0.32;;;14.80;99.90;;;;;;5030656;28;20041;-77
2023/10/22 11:49:54;;;;;;;2.20;0.30;;;14.70;99.90;;;;;;5036636;28;20401;-76
2023/10/22 11:52:35;;;;;;;1.63;0.35;;;14.60;99.90;;;;;;5034097;28;20513;-76
2023/10/22 11:55:01;;;;;;;1.80;0.20;;;14.50;99.90;;;;;;5013795;28;20041;-77
2023/10/22 11:57:27;;;;;;;1.33;0.30;;;14.60;99.90;;;;;;5033871;28;20037;-78
2023/10/22 11:59:52;;;;;;;1.73;0.20;;;14.50;99.90;;;;;;5035172;28;20103;-77
2023/10/22 12:02:18;;;;;;;1.98;0.25;;;14.40;99.90;;;;;;5011807;28;20038;-75
2023/10/22 12:04:43;;;;;;;4.03;0.10;;;14.50;99.90;;;;;;5035548;28;20041;-78
2023/10/22 12:07:09;;;;;;;0.85;0.13;;;14.60;99.90;;;;;;5014546;28;20055;-78
2023/10/22 12:09:34;;;;;;;2.65;0.40;;;14.70;99.90;;;;;;5033472;28;20049;-77
2023/10/22 12:12:00;;;;;;;2.90;0.22;;;14.70;99.90;;;;;;5028817;28;20033;-77
2023/10/22 12:14:26;;;;;;;1.38;0.20;;;14.70;99.90;;;;;;5047746;28;20072;-78
2023/10/22 12:16:51;;;;;;;1.27;0.20;;;14.70;99.90;;;;;;5031554;28;20029;-77
2023/10/22 12:19:17;;;;;;;1.42;0.13;;;14.60;99.90;;;;;;5034919;28;20442;-80
2023/10/22 12:21:42;;;;;;;2.45;0.30;;;14.50;99.90;;;;;;5040069;28;20033;-77
2023/10/22 12:24:08;;;;;;;1.83;0.20;;;14.40;99.90;;;;;;5016642;28;20116;-77
2023/10/22 12:26:34;;;;;;;1.85;0.52;;;14.30;99.90;;;;;;5012949;28;20069;-79
2023/10/22 12:28:59;;;;;;;2.08;0.20;;;14.20;99.90;;;;;;5031257;28;20092;-77
2023/10/22 12:31:25;;;;;;;2.55;0.20;;;14.10;99.90;;;;;;5031224;28;20045;-77
2023/10/22 12:33:51;;;;;;;1.45;0.28;;;14.10;99.90;;;;;;5018937;28;20402;-77
2023/10/22 12:36:16;;;;;;;3.03;0.30;;;14.10;99.90;;;;;;5032764;28;20121;-79
2023/10/22 12:38:42;;;;;;;1.23;0.10;;;14.20;99.90;;;;;;5039819;28;20111;-78
2023/10/22 12:41:07;;;;;;;2.28;0.20;;;14.30;99.90;;;;;;5018468;28;20037;-78
2023/10/22 12:43:33;;;;;;;0.57;0.10;;;14.50;99.90;;;;;;5033497;28;20034;-77
2023/10/22 12:46:03;;;;;;;1.60;0.10;;;14.70;99.90;;;;;;5032652;28;20134;-78